EDT,Max TemperatureF,Mean TemperatureF,Min TemperatureF,Max Dew PointF,MeanDew PointF,Min DewpointF,Max Humidity, Mean Humidity, Min Humidity, Max Sea Level PressureIn, Mean Sea Level PressureIn, Min Sea Level PressureIn, Max VisibilityMiles, Mean VisibilityMiles, Min VisibilityMiles, Max Wind SpeedMPH, Mean Wind SpeedMPH, Max Gust SpeedMPH,PrecipitationIn, CloudCover, Events, WindDirDegrees
2013-5-1,67,55,42,50,43,34,86,64,42,30.30,30.12,29.91,10,9,5,15,8,22,0.00,1,,2
2013-5-2,71,54,37,50,41,33,85,66,47,30.30,30.25,30.21,10,10,10,18,7,22,0.00,2,,270
2013-5-3,69,53,37,40,37,33,85,60,34,30.20,30.16,30.13,10,10,10,21,8,28,0.00,5,,106
2013-5-4,74,63,51,44,41,37,64,49,33,30.16,30.14,30.12,10,10,10,15,6,21,0.00,0,,108
2013-5-5,74,58,42,42,39,35,82,54,25,30.16,30.12,30.08,10,10,10,14,3,17,0.00,0,,217
2013-5-6,75,56,37,43,38,34,92,61,29,30.13,30.08,30.02,10,10,10,12,5,14,0.00,0,,285
2013-5-7,78,59,39,43,35,27,85,51,16,30.12,30.07,30.02,10,10,10,13,4,18,0.00,0,,202
2013-5-8,81,64,46,40,33,26,60,38,15,30.05,30.00,29.95,10,10,10,12,5,17,0.00,0,,91
2013-5-9,68,54,39,43,38,32,70,54,37,30.10,30.00,29.94,10,10,9,16,7,23,0.04,4,Rain,16
2013-5-10,47,41,34,33,30,26,89,71,53,30.12,30.04,29.94,10,10,8,15,7,22,0.20,8,Rain,53
2013-5-11,52,42,32,35,31,28,89,71,52,29.92,29.74,29.64,10,7,1,21,8,32,0.32,6,Rain-Snow,292
2013-5-12,35,33,30,31,28,24,89,79,69,29.99,29.79,29.61,10,4,0,31,18,42,0.41,8,Fog-Rain-Snow,307
2013-5-13,48,40,31,28,23,15,78,55,31,30.11,30.06,30.00,10,10,10,18,8,24,0.00,0,,292
2013-5-14,55,47,39,37,34,26,79,65,50,30.01,29.87,29.69,10,10,5,22,10,32,T,5,Rain,118
2013-5-15,66,54,42,43,38,34,82,57,32,29.72,29.62,29.50,10,10,5,26,13,41,0.00,2,,299
2013-5-16,53,46,38,36,35,34,70,60,50,30.08,29.90,29.72,10,10,10,17,10,23,0.00,0,,299
2013-5-17,66,52,37,39,35,33,85,60,34,30.22,30.18,30.09,10,10,10,15,6,21,0.00,0,,119
2013-5-18,67,55,43,43,38,36,76,57,37,30.23,30.17,30.06,10,10,10,18,9,26,T,3,Rain,106
2013-5-19,76,64,52,51,47,43,71,56,41,30.04,29.96,29.88,10,10,10,12,6,16,0.02,5,Rain,102
2013-5-20,68,62,55,56,53,49,86,73,60,29.94,29.85,29.77,10,9,1,15,10,25,0.34,6,Rain-Thunderstorm,94
2013-5-21,60,57,53,53,52,49,93,86,78,29.83,29.77,29.73,10,8,2,14,8,21,0.40,8,Rain,90
2013-5-22,58,54,50,52,50,47,89,81,72,29.80,29.74,29.71,10,10,6,15,6,23,0.33,8,Rain,64
2013-5-23,54,47,39,45,33,25,83,61,39,30.27,30.01,29.80,10,9,5,18,12,29,0.21,4,Rain,11
2013-5-24,50,43,36,30,27,23,70,58,46,30.39,30.35,30.29,10,10,10,17,9,24,0.00,1,,323
2013-5-25,60,47,34,33,30,28,82,57,31,30.46,30.38,30.32,10,10,10,18,6,24,0.00,0,,303
2013-5-26,66,52,37,35,31,25,79,51,23,30.39,30.32,30.23,10,10,10,14,5,19,0.00,0,,297
2013-5-27,70,54,38,37,32,27,79,51,23,30.25,30.16,30.05,10,10,10,18,6,23,0.00,0,,117
2013-5-28,56,52,47,52,44,31,93,72,50,30.04,29.89,29.77,10,7,1,16,8,24,0.09,7,Rain,108
2013-5-29,67,60,52,55,52,50,100,84,68,29.94,29.84,29.75,10,7,0,14,5,19,0.00,7,Fog,246
2013-5-30,85,69,53,64,56,51,93,71,48,29.95,29.92,29.85,10,7,1,16,7,22,0.00,5,,114
2013-5-31,78,70,62,64,61,58,93,75,56,29.86,29.79,29.75,10,9,1,26,9,37,0.09,4,Rain-Thunderstorm,160